Time;durP1;ratioP1;P1;durP2;ratioP2;P2;SDS_P1;SDS_P2;PMS_P1;PMS_P2;Temp;Humidity;BMP_temperature;BMP_pressure;BME280_temperature;BME280_humidity;BME280_pressure;Samples;Min_cycle;Max_cycle;Signal;HPM_P1;HPM_P2
2023/07/04 00:01:10;;;;;;;4.87;3.43;;;19.00;99.90;;;;;;5089858;28;20477;-56
2023/07/04 00:03:39;;;;;;;3.80;2.50;;;19.20;99.90;;;;;;5080866;28;20457;-57
2023/07/04 00:06:10;;;;;;;5.77;2.87;;;19.10;99.90;;;;;;5085201;28;20442;-55
2023/07/04 00:08:37;;;;;;;8.23;3.20;;;18.90;99.90;;;;;;5092241;28;20466;-55
2023/07/04 00:11:06;;;;;;;7.73;3.20;;;18.70;99.90;;;;;;5090558;28;20454;-59
2023/07/04 00:13:34;;;;;;;3.30;2.40;;;18.90;99.90;;;;;;5090616;28;20438;-56
2023/07/04 00:16:02;;;;;;;8.00;3.03;;;18.70;99.90;;;;;;5091386;28;20513;-54
2023/07/04 00:18:29;;;;;;;8.00;2.60;;;18.80;99.90;;;;;;5085190;28;20937;-55
2023/07/04 00:20:59;;;;;;;6.83;3.37;;;19.20;99.90;;;;;;5087401;28;20477;-58
2023/07/04 00:23:29;;;;;;;4.70;3.20;;;18.80;99.90;;;;;;5082129;28;20922;-54
2023/07/04 00:25:57;;;;;;;3.97;2.70;;;;;;;;;;5088077;28;20465;-52
2023/07/04 00:28:25;;;;;;;6.67;2.80;;;18.80;99.90;;;;;;5087168;28;20485;-55
2023/07/04 00:30:54;;;;;;;4.40;3.37;;;19.40;99.90;;;;;;5080675;28;20519;-59
2023/07/04 00:33:21;;;;;;;7.60;2.50;;;18.90;99.90;;;;;;5086577;28;20447;-56
2023/07/04 00:35:48;;;;;;;8.53;3.10;;;19.20;99.90;;;;;;5082871;28;20481;-57
2023/07/04 00:38:16;;;;;;;10.10;3.43;;;18.80;99.90;;;;;;5080289;28;20506;-54
2023/07/04 00:40:45;;;;;;;7.83;3.07;;;18.90;99.90;;;;;;5077671;28;20458;-57
2023/07/04 00:43:12;;;;;;;6.67;3.37;;;;;;;;;;5083050;28;20503;-58
2023/07/04 00:45:43;;;;;;;3.30;2.87;;;18.80;99.90;;;;;;5087606;28;20504;-56
2023/07/04 00:48:13;;;;;;;7.03;3.30;;;18.80;99.90;;;;;;5079329;28;20467;-56
2023/07/04 00:50:44;;;;;;;7.60;3.20;;;18.80;99.90;;;;;;5083660;28;20431;-54
2023/07/04 00:53:13;;;;;;;7.70;3.30;;;18.70;99.90;;;;;;5083088;28;20423;-57
2023/07/04 00:55:45;;;;;;;6.50;3.40;;;18.80;99.90;;;;;;5081100;28;20882;-56
2023/07/04 00:58:15;;;;;;;15.30;3.53;;;18.70;99.90;;;;;;5078963;28;20513;-54
2023/07/04 01:00:43;;;;;;;5.13;3.20;;;19.00;99.90;;;;;;5079493;28;20450;-53
2023/07/04 01:03:13;;;;;;;5.30;3.27;;;18.90;99.90;;;;;;5079138;28;20461;-57
2023/07/04 01:05:50;;;;;;;8.00;3.87;;;18.80;99.90;;;;;;5080363;28;20435;-51
2023/07/04 01:08:22;;;;;;;6.07;3.53;;;18.80;99.90;;;;;;5086049;28;20473;-54
2023/07/04 01:10:51;;;;;;;10.77;2.87;;;18.80;99.90;;;;;;5078843;28;20449;-55
2023/07/04 01:13:34;;;;;;;6.70;3.10;;;18.70;99.90;;;;;;5076743;28;20427;-58
2023/07/04 01:16:02;;;;;;;8.43;3.30;;;18.90;99.90;;;;;;5082024;28;20490;-53
2023/07/04 01:18:30;;;;;;;6.83;2.97;;;;;;;;;;5086800;28;20447;-57
2023/07/04 01:21:01;;;;;;;8.13;3.67;;;18.80;99.90;;;;;;5089749;28;20502;-53
2023/07/04 01:23:44;;;;;;;3.90;2.90;;;18.80;99.90;;;;;;5092460;28;20446;-51
2023/07/04 01:26:22;;;;;;;6.47;2.97;;;18.60;99.90;;;;;;5086978;28;20426;-58
2023/07/04 01:28:51;;;;;;;10.63;4.53;;;19.00;99.90;;;;;;5083120;28;20901;-57
2023/07/04 01:31:20;;;;;;;11.43;2.87;;;18.70;99.90;;;;;;5085380;28;20450;-57
2023/07/04 01:33:48;;;;;;;4.33;2.80;;;18.80;99.90;;;;;;5083758;28;20457;-57
2023/07/04 01:36:16;;;;;;;6.13;3.73;;;18.90;99.90;;;;;;5078459;28;20482;-60
2023/07/04 01:38:43;;;;;;;7.20;2.90;;;;;;;;;;5085061;28;20481;-58
2023/07/04 01:41:12;;;;;;;4.97;3.10;;;;;;;;;;5082905;28;20505;-57
2023/07/04 01:43:40;;;;;;;4.73;3.17;;;18.70;99.90;;;;;;5078275;28;20451;-58
2023/07/04 01:46:07;;;;;;;8.40;3.87;;;;;;;;;;5078982;28;20990;-57
2023/07/04 01:48:34;;;;;;;5.67;2.70;;;18.60;99.90;;;;;;5088468;28;20466;-57
2023/07/04 01:51:01;;;;;;;6.83;3.33;;;;;;;;;;5083234;28;20457;-54
2023/07/04 01:53:28;;;;;;;3.73;3.23;;;19.40;99.90;;;;;;5079491;28;20481;-59
2023/07/04 01:55:56;;;;;;;4.93;2.97;;;;;;;;;;5084409;28;20490;-56
2023/07/04 01:58:23;;;;;;;6.20;3.40;;;;;;;;;;5081439;28;20835;-59
2023/07/04 02:00:51;;;;;;;4.37;3.20;;;18.90;99.90;;;;;;5086191;28;20453;-59
2023/07/04 02:03:18;;;;;;;6.63;3.23;;;;;;;;;;5075102;28;20545;-57
2023/07/04 02:05:45;;;;;;;11.30;3.70;;;18.80;99.90;;;;;;5078182;28;20459;-56
2023/07/04 02:08:12;;;;;;;7.13;3.93;;;;;;;;;;5081548;28;20470;-57
2023/07/04 02:10:39;;;;;;;7.40;3.83;;;18.90;99.90;;;;;;5086814;28;20471;-54
2023/07/04 02:13:06;;;;;;;9.70;4.97;;;;;;;;;;5085507;28;20505;-54
2023/07/04 02:15:33;;;;;;;17.40;8.60;;;;;;;;;;5077922;28;20466;-55
2023/07/04 02:18:01;;;;;;;8.37;4.03;;;18.90;99.90;;;;;;5076225;28;20496;-55
2023/07/04 02:20:28;;;;;;;11.40;4.13;;;19.00;99.90;;;;;;5074674;28;20478;-55
2023/07/04 02:22:56;;;;;;;7.90;3.40;;;;;;;;;;5079276;28;20559;-53
2023/07/04 02:25:23;;;;;;;6.07;3.00;;;18.60;99.90;;;;;;5078186;28;20469;-55
2023/07/04 02:27:50;;;;;;;5.37;4.20;;;;;;;;;;5077656;28;20472;-57
2023/07/04 02:30:17;;;;;;;15.47;4.27;;;18.60;99.90;;;;;;5083531;28;20474;-55
2023/07/04 02:32:44;;;;;;;6.43;4.27;;;18.80;99.90;;;;;;5075496;28;20528;-56
2023/07/04 02:35:14;;;;;;;4.07;2.63;;;18.70;99.90;;;;;;5074594;28;20453;-58
2023/07/04 02:37:41;;;;;;;6.90;3.60;;;;;;;;;;5079905;28;20568;-59
2023/07/04 02:40:09;;;;;;;10.40;3.37;;;18.70;99.90;;;;;;5075619;28;20453;-56
2023/07/04 02:42:36;;;;;;;7.57;4.83;;;;;;;;;;5078708;28;21006;-60
2023/07/04 02:45:06;;;;;;;7.07;3.27;;;18.40;99.90;;;;;;5078932;28;20513;-59
2023/07/04 02:47:33;;;;;;;11.77;3.83;;;18.70;99.90;;;;;;5078414;28;20473;-57
2023/07/04 02:50:00;;;;;;;5.60;3.80;;;18.20;99.90;;;;;;5078753;28;20610;-57
2023/07/04 02:52:30;;;;;;;8.17;3.70;;;18.50;99.90;;;;;;5081475;28;20508;-58
2023/07/04 02:54:57;;;;;;;10.60;3.90;;;;;;;;;;5079131;28;20586;-57
2023/07/04 02:57:26;;;;;;;6.70;3.30;;;18.40;99.90;;;;;;5081002;28;20474;-56
2023/07/04 02:59:55;;;;;;;5.40;3.33;;;;;;;;;;5081971;28;20844;-57
2023/07/04 03:02:23;;;;;;;7.20;3.20;;;;;;;;;;5080350;28;20529;-57
2023/07/04 03:04:51;;;;;;;5.57;3.00;;;18.20;99.90;;;;;;5077526;28;20950;-58
2023/07/04 03:07:18;;;;;;;9.70;3.40;;;;;;;;;;5079143;28;20442;-56
2023/07/04 03:09:47;;;;;;;5.67;3.70;;;18.50;99.90;;;;;;5074747;28;20988;-57
2023/07/04 03:12:14;;;;;;;5.63;3.27;;;;;;;;;;5078011;28;20489;-59
2023/07/04 03:14:41;;;;;;;3.57;2.90;;;18.50;99.90;;;;;;5077243;28;20461;-60
2023/07/04 03:17:07;;;;;;;8.90;3.40;;;18.60;99.90;;;;;;5083874;28;20585;-53
2023/07/04 03:19:34;;;;;;;6.13;3.13;;;18.50;99.90;;;;;;5084876;28;20544;-58
2023/07/04 03:22:01;;;;;;;4.70;3.20;;;18.50;99.90;;;;;;5087553;28;20446;-58
2023/07/04 03:24:29;;;;;;;6.23;2.67;;;;;;;;;;5085426;28;20427;-53
2023/07/04 03:26:58;;;;;;;6.03;2.33;;;18.50;99.90;;;;;;5087915;28;20924;-56
2023/07/04 03:29:24;;;;;;;7.53;3.17;;;18.40;99.90;;;;;;5085782;28;20465;-53
2023/07/04 03:31:52;;;;;;;6.17;3.00;;;;;;;;;;5088753;28;20449;-57
2023/07/04 03:34:19;;;;;;;6.20;3.40;;;;;;;;;;5088354;28;20471;-58
2023/07/04 03:36:46;;;;;;;5.40;3.20;;;18.30;99.90;;;;;;5086452;28;20509;-56
2023/07/04 03:39:13;;;;;;;7.53;3.90;;;;;;;;;;5092060;28;20493;-58
2023/07/04 03:41:40;;;;;;;7.00;3.87;;;18.50;99.90;;;;;;5080502;28;20484;-57
2023/07/04 03:44:08;;;;;;;6.67;3.20;;;18.40;99.90;;;;;;5083555;28;20902;-59
2023/07/04 03:46:35;;;;;;;9.40;3.07;;;18.00;99.90;;;;;;5085508;28;20918;-59
2023/07/04 03:49:02;;;;;;;7.00;3.70;;;;;;;;;;5088188;28;20457;-57
2023/07/04 03:51:31;;;;;;;7.70;3.40;;;18.10;99.90;;;;;;5093646;28;20473;-58
2023/07/04 03:53:58;;;;;;;6.10;3.27;;;;;;;;;;5078604;28;20508;-60
2023/07/04 03:56:25;;;;;;;6.40;3.00;;;;;;;;;;5084735;28;20649;-58
2023/07/04 03:58:52;;;;;;;4.80;2.73;;;18.10;99.90;;;;;;5084945;28;20512;-57
2023/07/04 04:01:21;;;;;;;8.27;3.80;;;18.10;99.90;;;;;;5086678;28;20442;-59
2023/07/04 04:03:48;;;;;;;6.00;3.10;;;;;;;;;;5082048;28;21000;-57
2023/07/04 04:06:15;;;;;;;6.73;3.60;;;;;;;;;;5082784;28;20465;-57
2023/07/04 04:08:42;;;;;;;4.10;2.67;;;17.70;99.90;;;;;;5082165;28;20476;-57
2023/07/04 04:11:09;;;;;;;7.90;3.83;;;;;;;;;;5077995;28;20842;-58
2023/07/04 04:13:36;;;;;;;4.60;2.97;;;;;;;;;;5077357;28;20820;-56
2023/07/04 04:16:03;;;;;;;7.67;3.80;;;18.10;99.90;;;;;;5077250;28;20450;-58
2023/07/04 04:18:31;;;;;;;5.93;4.50;;;18.00;99.90;;;;;;5076995;28;20581;-53
2023/07/04 04:20:59;;;;;;;7.67;4.00;;;;;;;;;;5077827;28;20905;-56
2023/07/04 04:23:25;;;;;;;6.63;4.60;;;18.30;99.90;;;;;;5076856;28;20453;-54
2023/07/04 04:25:52;;;;;;;5.43;2.73;;;18.10;99.90;;;;;;5077164;28;20529;-51
2023/07/04 04:28:19;;;;;;;8.77;4.20;;;;;;;;;;5077016;28;20441;-56
2023/07/04 04:30:47;;;;;;;11.43;4.00;;;;;;;;;;5075771;28;20502;-54
2023/07/04 04:33:16;;;;;;;9.87;3.47;;;;;;;;;;5078760;28;20442;-54
2023/07/04 04:35:45;;;;;;;4.50;3.03;;;18.50;99.90;;;;;;5080269;28;20972;-56
2023/07/04 04:38:12;;;;;;;11.80;3.67;;;17.80;99.90;;;;;;5079609;28;20474;-57
2023/07/04 04:40:39;;;;;;;4.97;3.00;;;;;;;;;;5077016;28;20438;-57
2023/07/04 04:43:07;;;;;;;4.70;2.87;;;;;;;;;;5076311;28;20478;-55
2023/07/04 04:45:34;;;;;;;4.03;3.30;;;18.20;99.90;;;;;;5076940;28;20443;-58
2023/07/04 04:48:01;;;;;;;11.30;5.63;;;;;;;;;;5078113;28;20828;-55
2023/07/04 04:50:30;;;;;;;6.43;3.00;;;18.10;99.90;;;;;;5079846;28;20461;-56
2023/07/04 04:52:59;;;;;;;9.47;3.23;;;18.00;99.90;;;;;;5079843;28;20485;-54
2023/07/04 04:55:27;;;;;;;6.97;3.90;;;17.80;99.90;;;;;;5080052;28;20497;-56
2023/07/04 04:57:54;;;;;;;7.10;3.40;;;;;;;;;;5080597;28;20481;-53
2023/07/04 05:00:22;;;;;;;8.70;3.43;;;;;;;;;;5079041;28;20442;-54
2023/07/04 05:02:48;;;;;;;6.60;3.40;;;18.00;99.90;;;;;;5079619;28;20506;-53
2023/07/04 05:05:19;;;;;;;7.67;3.40;;;18.10;99.90;;;;;;5085023;28;20482;-51
2023/07/04 05:07:46;;;;;;;7.13;3.10;;;18.10;99.90;;;;;;5085131;28;20947;-55
2023/07/04 05:10:15;;;;;;;5.43;2.93;;;18.40;99.90;;;;;;5076349;28;20453;-55
2023/07/04 05:12:42;;;;;;;8.47;3.33;;;;;;;;;;5075821;28;20469;-59
2023/07/04 05:15:10;;;;;;;11.77;4.67;;;18.40;99.90;;;;;;5076548;28;20536;-57
2023/07/04 05:17:37;;;;;;;5.87;3.37;;;18.60;99.90;;;;;;5079943;28;20537;-57
2023/07/04 05:20:05;;;;;;;7.63;5.10;;;;;;;;;;5079176;28;20533;-57
2023/07/04 05:22:32;;;;;;;3.40;2.63;;;18.80;99.90;;;;;;5079930;28;20431;-57
2023/07/04 05:24:58;;;;;;;11.90;3.37;;;18.80;99.90;;;;;;5089330;28;20517;-51
2023/07/04 05:27:27;;;;;;;7.57;3.40;;;18.70;99.90;;;;;;5095504;28;20493;-58
2023/07/04 05:29:54;;;;;;;4.87;2.73;;;18.80;99.90;;;;;;5078731;28;20529;-56
2023/07/04 05:32:21;;;;;;;8.20;2.93;;;;;;;;;;5077134;28;20434;-57
2023/07/04 05:34:49;;;;;;;7.97;3.40;;;18.50;99.90;;;;;;5080835;28;20513;-57
2023/07/04 05:37:16;;;;;;;4.47;3.07;;;18.80;99.90;;;;;;5083198;28;20518;-56
2023/07/04 05:39:42;;;;;;;8.27;2.60;;;19.20;99.90;;;;;;5088885;28;20505;-56
2023/07/04 05:42:10;;;;;;;9.37;3.30;;;;;;;;;;5080525;28;20457;-54
2023/07/04 05:44:38;;;;;;;11.30;3.80;;;;;;;;;;5075288;28;20474;-57
2023/07/04 05:47:05;;;;;;;5.70;3.10;;;;;;;;;;5077792;28;20530;-56
2023/07/04 05:49:32;;;;;;;26.07;4.83;;;;;;;;;;5077081;28;20910;-55
2023/07/04 05:52:00;;;;;;;5.30;3.13;;;18.70;99.90;;;;;;5075243;28;20541;-56
2023/07/04 05:54:26;;;;;;;11.83;3.83;;;18.80;99.90;;;;;;5076654;28;20447;-50
2023/07/04 05:56:56;;;;;;;12.53;3.90;;;18.50;99.90;;;;;;5079035;28;20442;-58
2023/07/04 05:59:23;;;;;;;10.40;4.17;;;;;;;;;;5077779;28;20726;-57
2023/07/04 06:01:52;;;;;;;10.40;3.63;;;18.60;99.90;;;;;;5075176;28;20792;-57
2023/07/04 06:04:19;;;;;;;10.83;4.00;;;18.70;99.90;;;;;;5075427;28;20494;-54
2023/07/04 06:06:51;;;;;;;6.50;3.57;;;18.70;99.90;;;;;;5078528;28;20604;-56
2023/07/04 06:09:18;;;;;;;3.93;2.83;;;18.50;99.90;;;;;;5087185;28;20889;-59
2023/07/04 06:11:46;;;;;;;5.23;3.33;;;18.70;99.90;;;;;;5080107;28;20492;-54
2023/07/04 06:14:18;;;;;;;8.73;3.47;;;18.60;99.90;;;;;;5077999;28;20505;-58
2023/07/04 06:16:45;;;;;;;8.77;3.30;;;;;;;;;;5077112;28;20466;-58
2023/07/04 06:19:14;;;;;;;5.40;3.70;;;18.50;99.90;;;;;;5080486;28;20840;-58
2023/07/04 06:21:41;;;;;;;5.33;3.50;;;18.50;99.90;;;;;;5078753;28;20544;-59
2023/07/04 06:24:08;;;;;;;8.10;4.40;;;;;;;;;;5074522;28;20965;-55
2023/07/04 06:26:35;;;;;;;13.03;3.50;;;18.70;99.90;;;;;;5079037;28;20450;-59
2023/07/04 06:29:05;;;;;;;5.00;3.30;;;18.90;99.90;;;;;;5077486;28;20490;-54
2023/07/04 06:31:32;;;;;;;9.40;3.57;;;18.60;99.90;;;;;;5078840;28;20457;-57
2023/07/04 06:34:00;;;;;;;14.13;3.93;;;;;;;;;;5077926;28;20480;-57
2023/07/04 06:36:28;;;;;;;8.03;4.60;;;18.90;99.90;;;;;;5077934;28;20456;-57
2023/07/04 06:38:59;;;;;;;6.83;3.07;;;18.60;99.90;;;;;;5077320;28;20482;-58
2023/07/04 06:41:26;;;;;;;4.90;3.30;;;18.80;99.90;;;;;;5074459;28;20552;-55
2023/07/04 06:43:53;;;;;;;12.63;3.37;;;18.40;99.90;;;;;;5077027;28;20743;-56
2023/07/04 06:46:21;;;;;;;4.90;3.10;;;18.80;99.90;;;;;;5076989;28;20541;-56
2023/07/04 06:48:48;;;;;;;7.40;3.67;;;;;;;;;;5077711;28;20469;-58
2023/07/04 06:51:16;;;;;;;8.10;2.70;;;18.80;99.90;;;;;;5078448;28;20535;-54
2023/07/04 06:53:46;;;;;;;5.60;3.30;;;18.60;99.90;;;;;;5082330;28;20843;-59
2023/07/04 06:56:14;;;;;;;9.40;2.97;;;18.70;99.90;;;;;;5088020;28;20506;-58
2023/07/04 06:58:43;;;;;;;6.80;2.90;;;18.80;99.90;;;;;;5085380;28;20514;-57
2023/07/04 07:01:12;;;;;;;7.30;3.07;;;19.00;99.90;;;;;;5083632;28;20450;-57
2023/07/04 07:03:39;;;;;;;4.30;2.43;;;;;;;;;;5083957;28;20534;-58
2023/07/04 07:06:07;;;;;;;6.13;3.53;;;20.50;99.90;;;;;;5081616;28;20501;-58
2023/07/04 07:08:35;;;;;;;6.37;2.87;;;19.00;99.90;;;;;;5080921;28;20446;-57
2023/07/04 07:11:05;;;;;;;4.83;2.57;;;19.00;99.90;;;;;;5079554;28;20545;-57
2023/07/04 07:13:32;;;;;;;3.00;2.43;;;19.20;99.90;;;;;;5080834;28;20460;-57
2023/07/04 07:16:07;;;;;;;4.17;2.97;;;19.70;99.90;;;;;;5083564;28;20502;-57
2023/07/04 07:18:34;;;;;;;8.23;3.30;;;;;;;;;;5084906;28;20589;-57
2023/07/04 07:21:02;;;;;;;7.70;3.20;;;19.70;99.90;;;;;;5078498;28;20484;-58
2023/07/04 07:23:29;;;;;;;8.10;3.27;;;;;;;;;;5080798;28;20453;-59
2023/07/04 07:25:56;;;;;;;5.57;2.97;;;20.90;99.90;;;;;;5078885;28;20525;-57
2023/07/04 07:28:25;;;;;;;7.40;3.07;;;21.80;99.90;;;;;;5083154;28;20489;-58
2023/07/04 07:31:01;;;;;;;9.10;3.17;;;22.50;99.90;;;;;;5078669;28;20449;-57
2023/07/04 07:33:30;;;;;;;4.93;3.13;;;22.50;99.90;;;;;;5078906;28;20461;-57
2023/07/04 07:35:57;;;;;;;6.20;3.47;;;22.50;99.90;;;;;;5079128;28;20441;-57
2023/07/04 07:38:24;;;;;;;5.50;3.27;;;23.10;99.90;;;;;;5079479;28;20580;-56
2023/07/04 07:40:51;;;;;;;4.20;2.90;;;23.30;99.90;;;;;;5079080;28;20914;-58
2023/07/04 07:43:18;;;;;;;3.23;2.60;;;23.30;99.90;;;;;;5081647;28;20481;-57
2023/07/04 07:45:47;;;;;;;6.67;2.90;;;23.20;99.90;;;;;;5091993;28;20438;-54
2023/07/04 07:48:14;;;;;;;7.00;3.20;;;23.00;99.90;;;;;;5085319;28;20465;-55
2023/07/04 07:50:42;;;;;;;6.40;3.00;;;22.70;99.90;;;;;;5085772;28;20537;-54
2023/07/04 07:53:09;;;;;;;6.03;2.87;;;22.70;99.90;;;;;;5085939;28;20519;-57
2023/07/04 07:55:36;;;;;;;4.70;2.80;;;22.50;99.90;;;;;;5086730;28;20529;-55
2023/07/04 07:58:03;;;;;;;7.80;2.30;;;;;;;;;;5087019;28;20569;-52
2023/07/04 08:00:31;;;;;;;4.33;2.13;;;;;;;;;;5087029;28;20517;-56
2023/07/04 08:02:59;;;;;;;3.50;2.23;;;22.00;99.90;;;;;;5087391;28;20477;-56
2023/07/04 08:05:26;;;;;;;4.57;2.80;;;;;;;;;;5085907;28;20450;-56
2023/07/04 08:07:53;;;;;;;4.73;2.70;;;;;;;;;;5092448;28;20538;-56
2023/07/04 08:10:20;;;;;;;5.30;2.70;;;25.00;99.90;;;;;;5091076;28;20442;-55
2023/07/04 08:12:47;;;;;;;6.07;2.40;;;25.50;99.90;;;;;;5085904;28;20462;-58
2023/07/04 08:15:14;;;;;;;4.13;3.00;;;;;;;;;;5083573;28;20496;-58
2023/07/04 08:17:41;;;;;;;6.47;2.60;;;;;;;;;;5084947;28;20474;-57
2023/07/04 08:20:11;;;;;;;4.67;2.70;;;25.50;99.90;;;;;;5085204;28;20538;-58
2023/07/04 08:22:37;;;;;;;3.93;2.60;;;25.40;99.90;;;;;;5084316;28;20446;-59
2023/07/04 08:25:05;;;;;;;5.17;2.60;;;25.10;88.50;;;;;;5078940;28;20966;-55
2023/07/04 08:27:32;;;;;;;5.83;2.77;;;;;;;;;;5080870;28;20560;-58
2023/07/04 08:29:59;;;;;;;5.90;2.40;;;24.30;99.90;;;;;;5083787;28;20466;-57
2023/07/04 08:32:29;;;;;;;7.33;2.43;;;;;;;;;;5077061;28;20438;-56
2023/07/04 08:34:56;;;;;;;3.27;2.67;;;22.80;99.90;;;;;;5079921;28;20519;-57
2023/07/04 08:37:24;;;;;;;4.20;2.23;;;23.40;99.90;;;;;;5078007;28;20471;-56
2023/07/04 08:39:51;;;;;;;3.77;2.60;;;24.10;99.90;;;;;;5081751;28;20486;-56
2023/07/04 08:42:22;;;;;;;7.97;3.07;;;23.90;92.40;;;;;;5083327;28;20502;-57
2023/07/04 08:44:52;;;;;;;2.90;2.47;;;23.60;99.90;;;;;;5084091;28;20948;-57
2023/07/04 08:47:25;;;;;;;3.67;2.50;;;24.30;92.70;;;;;;5085656;28;20980;-58
2023/07/04 08:49:55;;;;;;;3.33;2.27;;;24.90;90.40;;;;;;5088166;28;20481;-56
2023/07/04 08:52:30;;;;;;;2.77;1.93;;;25.20;99.90;;;;;;5077574;28;20470;-56
2023/07/04 08:54:57;;;;;;;3.33;1.97;;;25.80;88.80;;;;;;5079447;28;20473;-58
2023/07/04 08:57:35;;;;;;;4.03;2.33;;;26.20;99.90;;;;;;5087148;28;20929;-57
2023/07/04 09:00:12;;;;;;;4.60;3.13;;;26.20;78.10;;;;;;5081044;28;20465;-52
2023/07/04 09:03:03;;;;;;;3.83;2.67;;;26.00;79.40;;;;;;5081248;28;20465;-58
2023/07/04 09:05:40;;;;;;;5.90;3.47;;;25.70;99.90;;;;;;5081443;28;20530;-58
2023/07/04 09:08:18;;;;;;;6.20;2.97;;;25.20;99.90;;;;;;5081956;28;20514;-51
2023/07/04 09:10:49;;;;;;;5.97;3.03;;;24.90;99.90;;;;;;5084303;28;20753;-58
2023/07/04 09:13:24;;;;;;;7.30;2.70;;;24.00;84.80;;;;;;5082109;28;20914;-55
2023/07/04 09:15:52;;;;;;;4.43;2.27;;;23.00;86.30;;;;;;5090452;28;20488;-56
2023/07/04 09:18:28;;;;;;;5.67;2.03;;;23.30;99.90;;;;;;5091052;28;20478;-57
2023/07/04 09:20:59;;;;;;;5.33;2.53;;;23.00;86.40;;;;;;5087692;28;20497;-57
2023/07/04 09:23:28;;;;;;;7.13;2.83;;;22.80;99.90;;;;;;5094572;28;20434;-57
2023/07/04 09:25:57;;;;;;;5.03;2.17;;;22.80;99.90;;;;;;5088491;28;20438;-55
2023/07/04 09:28:25;;;;;;;4.77;2.13;;;23.80;99.90;;;;;;5090906;28;20509;-58
2023/07/04 09:30:53;;;;;;;3.47;2.23;;;23.80;99.90;;;;;;5076330;28;20442;-58
2023/07/04 09:33:21;;;;;;;3.63;2.73;;;24.00;99.90;;;;;;5081070;28;20481;-56
2023/07/04 09:35:49;;;;;;;4.20;2.50;;;23.70;99.90;;;;;;5083753;28;20448;-57
2023/07/04 09:38:16;;;;;;;4.40;2.40;;;;;;;;;;5090320;28;20497;-55
2023/07/04 09:40:48;;;;;;;5.03;2.43;;;23.60;99.90;;;;;;5090449;28;20473;-57
2023/07/04 09:43:28;;;;;;;3.73;2.33;;;23.50;99.90;;;;;;5090184;28;20426;-58
2023/07/04 09:46:17;;;;;;;3.37;2.00;;;23.70;99.90;;;;;;5091683;28;20466;-56
2023/07/04 09:48:44;;;;;;;3.60;2.33;;;24.30;99.90;;;;;;5084137;28;20742;-55
2023/07/04 09:51:26;;;;;;;2.33;1.93;;;24.30;99.90;;;;;;5079887;28;20470;-57
2023/07/04 09:54:09;;;;;;;3.40;1.90;;;24.70;99.90;;;;;;5078871;28;20902;-55
2023/07/04 09:56:38;;;;;;;7.47;2.70;;;25.60;99.90;;;;;;5081424;28;20478;-59
2023/07/04 09:59:12;;;;;;;4.67;2.70;;;26.20;98.60;;;;;;5086898;28;20489;-54
2023/07/04 10:01:40;;;;;;;5.53;2.30;;;26.60;99.90;;;;;;5085998;28;20454;-58
2023/07/04 10:04:09;;;;;;;3.23;1.83;;;27.10;73.40;;;;;;5085163;28;20470;-58
2023/07/04 10:06:38;;;;;;;5.03;2.30;;;26.90;69.30;;;;;;5079724;28;20942;-60
2023/07/04 10:09:15;;;;;;;2.93;2.00;;;26.90;98.80;;;;;;5076742;28;20466;-59
2023/07/04 10:11:43;;;;;;;5.70;2.30;;;26.90;68.40;;;;;;5080231;28;20979;-59
2023/07/04 10:14:13;;;;;;;2.57;2.17;;;26.80;97.80;;;;;;5075595;28;20561;-58
2023/07/04 10:16:47;;;;;;;4.83;2.90;;;26.80;68.20;;;;;;5080200;28;20521;-59
2023/07/04 10:19:16;;;;;;;3.10;2.33;;;27.10;70.10;;;;;;5076188;28;20576;-58
2023/07/04 10:21:45;;;;;;;4.80;2.47;;;26.40;97.20;;;;;;5078441;28;20446;-56
2023/07/04 10:24:16;;;;;;;5.27;2.50;;;26.10;95.00;;;;;;5078500;28;20454;-58
2023/07/04 10:26:46;;;;;;;5.30;2.03;;;26.50;97.20;;;;;;5079794;28;20517;-58
2023/07/04 10:29:13;;;;;;;4.33;2.43;;;26.80;97.60;;;;;;5077164;28;20445;-58
2023/07/04 10:31:41;;;;;;;3.90;2.37;;;26.70;95.10;;;;;;5079531;28;20473;-59
2023/07/04 10:34:10;;;;;;;1.97;1.60;;;26.20;94.90;;;;;;5079186;28;20452;-60
2023/07/04 10:36:38;;;;;;;2.43;2.07;;;26.20;99.40;;;;;;5077596;28;20501;-52
2023/07/04 10:39:10;;;;;;;4.97;2.40;;;26.20;95.80;;;;;;5086001;28;20474;-55
2023/07/04 10:41:41;;;;;;;3.00;1.93;;;25.90;97.70;;;;;;5086215;28;20454;-57
2023/07/04 10:44:13;;;;;;;3.30;2.43;;;27.20;75.10;;;;;;5083682;28;20430;-60
2023/07/04 10:46:46;;;;;;;6.27;2.17;;;24.20;75.30;;;;;;5086778;28;20503;-54
2023/07/04 10:49:18;;;;;;;2.63;2.10;;;23.50;98.10;;;;;;5081074;28;20453;-59
2023/07/04 10:51:47;;;;;;;3.10;1.90;;;23.20;99.60;;;;;;5088834;28;20438;-59
2023/07/04 10:54:14;;;;;;;4.70;2.30;;;23.10;99.90;;;;;;5082646;28;20505;-57
2023/07/04 10:56:46;;;;;;;5.43;2.40;;;22.30;99.90;;;;;;5085990;28;20437;-58
2023/07/04 10:59:17;;;;;;;4.47;2.00;;;21.90;99.90;;;;;;5083055;28;20490;-58
2023/07/04 11:01:51;;;;;;;5.63;2.90;;;22.30;85.40;;;;;;5088539;28;20484;-57
2023/07/04 11:04:23;;;;;;;4.77;2.30;;;22.10;99.90;;;;;;5090323;28;20499;-59
2023/07/04 11:06:58;;;;;;;3.53;2.17;;;22.00;99.90;;;;;;5084984;28;20441;-54
2023/07/04 11:09:27;;;;;;;5.07;2.40;;;21.20;99.90;;;;;;5089148;28;20450;-56
2023/07/04 11:12:01;;;;;;;5.00;2.57;;;21.50;99.90;;;;;;5082759;28;20489;-59
2023/07/04 11:14:32;;;;;;;3.87;2.60;;;21.30;91.70;;;;;;5081451;28;20516;-58
2023/07/04 11:17:03;;;;;;;5.77;2.63;;;21.90;99.90;;;;;;5082873;28;20498;-58
2023/07/04 11:19:34;;;;;;;3.63;1.90;;;21.90;91.70;;;;;;5082769;28;20481;-55
2023/07/04 11:22:17;;;;;;;6.10;2.40;;;22.30;95.90;;;;;;5091430;28;20462;-58
2023/07/04 11:24:46;;;;;;;6.20;2.67;;;22.50;99.90;;;;;;5088334;28;20931;-55
2023/07/04 11:27:14;;;;;;;13.40;5.63;;;22.70;90.80;;;;;;5090864;28;20525;-58
2023/07/04 11:29:52;;;;;;;7.80;3.57;;;22.50;99.90;;;;;;5083589;28;20449;-54
2023/07/04 11:32:52;;;;;;;5.40;4.27;;;22.60;99.90;;;;;;5078940;28;20442;-56
2023/07/04 11:35:22;;;;;;;16.67;10.83;;;22.20;99.90;;;;;;5090670;28;20481;-53
2023/07/04 11:37:53;;;;;;;3.53;3.03;;;22.50;99.90;;;;;;5087860;28;20446;-52
2023/07/04 11:40:25;;;;;;;6.63;3.53;;;21.70;92.80;;;;;;5084918;28;20585;-49
2023/07/04 11:42:55;;;;;;;3.33;2.90;;;21.50;96.30;;;;;;5095834;28;20488;-56
2023/07/04 11:45:25;;;;;;;3.63;2.63;;;21.30;99.90;;;;;;5094104;28;20522;-56
2023/07/04 11:48:00;;;;;;;11.97;2.80;;;21.60;99.90;;;;;;5094948;28;20446;-51
2023/07/04 11:50:34;;;;;;;4.70;3.47;;;21.40;99.90;;;;;;5095724;28;20422;-58
2023/07/04 11:53:04;;;;;;;3.83;2.50;;;21.20;99.90;;;;;;5088404;28;20427;-56
2023/07/04 11:55:33;;;;;;;4.13;3.20;;;21.70;96.40;;;;;;5087239;28;20442;-56
2023/07/04 11:58:19;;;;;;;5.13;2.77;;;21.90;94.60;;;;;;5085657;28;20470;-53
2023/07/04 12:01:07;;;;;;;6.83;3.40;;;22.50;97.10;;;;;;5085898;28;20462;-58
2023/07/04 12:03:57;;;;;;;4.97;2.43;;;21.70;93.60;;;;;;5088173;28;20508;-59
2023/07/04 12:06:55;;;;;;;4.07;2.80;;;21.90;92.10;;;;;;5071163;28;20434;-58
2023/07/04 12:09:44;;;;;;;4.17;2.83;;;22.90;99.90;;;;;;5077753;28;20545;-58
2023/07/04 12:12:19;;;;;;;5.10;3.10;;;22.70;96.70;;;;;;5079534;28;20485;-55
2023/07/04 12:14:48;;;;;;;5.90;4.03;;;22.90;99.90;;;;;;5082133;28;20430;-58
2023/07/04 12:17:18;;;;;;;3.57;3.03;;;22.90;91.60;;;;;;5084119;28;20918;-55
2023/07/04 12:19:45;;;;;;;3.23;2.60;;;22.70;99.90;;;;;;5082482;28;20474;-57
2023/07/04 12:22:17;;;;;;;4.07;3.43;;;22.60;99.90;;;;;;5084427;28;20466;-58
2023/07/04 12:24:46;;;;;;;3.63;2.53;;;22.90;99.90;;;;;;5091763;28;20503;-56
2023/07/04 12:27:13;;;;;;;4.47;3.10;;;22.90;99.90;;;;;;5084105;28;20487;-58
2023/07/04 12:29:47;;;;;;;3.97;3.00;;;23.20;99.90;;;;;;5079311;28;20494;-58
2023/07/04 12:32:18;;;;;;;4.00;3.23;;;23.10;99.90;;;;;;5078349;28;20521;-57
2023/07/04 12:34:46;;;;;;;4.63;3.00;;;23.20;88.80;;;;;;5081744;28;20470;-57
2023/07/04 12:37:16;;;;;;;4.07;2.13;;;23.40;99.90;;;;;;5081884;28;20968;-57
2023/07/04 12:39:46;;;;;;;5.30;3.30;;;22.70;94.30;;;;;;5083704;28;20526;-58
2023/07/04 12:42:24;;;;;;;3.03;2.73;;;22.90;99.90;;;;;;5082366;28;20458;-59
2023/07/04 12:44:52;;;;;;;4.10;2.70;;;22.80;94.30;;;;;;5082818;28;20522;-55
2023/07/04 12:47:23;;;;;;;4.13;3.10;;;23.40;99.90;;;;;;5094030;28;20498;-51
2023/07/04 12:49:52;;;;;;;3.03;2.70;;;23.90;99.90;;;;;;5088916;28;20454;-58
2023/07/04 12:52:20;;;;;;;3.43;3.10;;;23.20;99.90;;;;;;5082984;28;20474;-59
2023/07/04 12:54:48;;;;;;;4.80;3.23;;;;;;;;;;5082588;28;20494;-57
2023/07/04 12:57:17;;;;;;;7.53;3.57;;;23.10;90.60;;;;;;5076739;28;20533;-56
2023/07/04 12:59:48;;;;;;;5.03;2.83;;;23.10;99.90;;;;;;5078029;28;20564;-55
2023/07/04 13:02:23;;;;;;;4.87;2.93;;;22.80;99.90;;;;;;5082186;28;20490;-57
2023/07/04 13:04:52;;;;;;;6.50;3.17;;;23.00;99.90;;;;;;5080896;28;20466;-55
2023/07/04 13:07:23;;;;;;;4.87;2.40;;;22.90;99.90;;;;;;5081557;28;20454;-57
2023/07/04 13:09:55;;;;;;;4.43;2.93;;;23.30;99.90;;;;;;5082490;28;20529;-59
2023/07/04 13:12:28;;;;;;;4.53;3.23;;;22.80;99.90;;;;;;5084430;28;20510;-57
2023/07/04 13:15:11;;;;;;;5.30;2.60;;;22.70;99.90;;;;;;5084820;28;20525;-57
2023/07/04 13:17:52;;;;;;;4.03;3.07;;;22.80;99.90;;;;;;5083209;28;20580;-58
2023/07/04 13:20:19;;;;;;;3.30;2.70;;;;;;;;;;5080780;28;20472;-57